Time;durP1;ratioP1;P1;durP2;ratioP2;P2;SDS_P1;SDS_P2;PMS_P1;PMS_P2;Temp;Humidity;BMP_temperature;BMP_pressure;BME280_temperature;BME280_humidity;BME280_pressure;Samples;Min_cycle;Max_cycle;Signal;HPM_P1;HPM_P2
2022/11/26 00:00:47;;;;;;;28.05;12.80;;;;;;;19.17;31.31;102208.06;5013686;28;20056;-46
2022/11/26 00:03:14;;;;;;;27.17;13.50;;;;;;;19.20;31.15;102208.41;5014451;28;20022;-44
2022/11/26 00:05:43;;;;;;;28.95;13.88;;;;;;;19.18;30.75;102207.81;5032349;28;20088;-45
2022/11/26 00:08:30;;;;;;;28.65;13.52;;;;;;;19.02;31.38;102211.19;5033763;28;20025;-47
2022/11/26 00:10:56;;;;;;;27.42;13.82;;;;;;;19.00;30.74;102213.31;5033522;28;20120;-48
2022/11/26 00:13:26;;;;;;;30.65;14.05;;;;;;;19.11;30.87;102223.38;5032425;28;20470;-48
2022/11/26 00:15:52;;;;;;;23.38;12.23;;;;;;;18.95;30.77;102218.59;5033471;28;20505;-45
2022/11/26 00:18:22;;;;;;;23.55;12.23;;;;;;;18.84;30.98;102216.63;5033727;28;20080;-48
2022/11/26 00:20:55;;;;;;;25.05;12.38;;;;;;;18.78;31.96;102215.66;5033255;28;20067;-45
2022/11/26 00:23:24;;;;;;;21.95;11.38;;;;;;;18.76;32.33;102211.50;5033564;28;20455;-45
2022/11/26 00:26:02;;;;;;;16.40;7.50;;;;;;;18.96;29.21;102217.53;5029508;28;20053;-46
2022/11/26 00:28:32;;;;;;;9.85;5.57;;;;;;;18.77;28.74;102218.56;5013871;28;20022;-45
2022/11/26 00:31:01;;;;;;;9.20;4.45;;;;;;;18.72;27.69;102217.41;5026042;28;20045;-43
2022/11/26 00:33:29;;;;;;;10.00;4.47;;;;;;;18.67;27.86;102219.97;5029166;28;20276;-45
2022/11/26 00:36:29;;;;;;;10.95;4.18;;;;;;;18.55;28.43;102219.03;5025453;28;20026;-46
2022/11/26 00:39:16;;;;;;;10.52;4.03;;;;;;;18.43;28.24;102213.53;5000392;28;20041;-44
2022/11/26 00:41:46;;;;;;;10.25;4.10;;;;;;;18.36;27.85;102211.94;5012734;28;20393;-44
2022/11/26 00:44:20;;;;;;;7.43;3.83;;;;;;;18.26;28.34;102217.84;5023509;28;20069;-46
2022/11/26 00:46:47;;;;;;;9.48;4.30;;;;;;;18.30;27.86;102218.25;5013404;28;20034;-44
2022/11/26 00:49:14;;;;;;;11.63;4.43;;;;;;;18.13;28.22;102215.28;5013860;28;20033;-47
2022/11/26 00:51:42;;;;;;;8.82;4.82;;;;;;;17.93;29.02;102213.59;5013205;28;20054;-45
2022/11/26 00:54:11;;;;;;;9.68;4.63;;;;;;;17.83;29.10;102220.56;5013292;28;20474;-44
2022/11/26 00:56:39;;;;;;;10.75;5.65;;;;;;;17.79;29.58;102219.31;5013230;28;20072;-44
2022/11/26 00:59:05;;;;;;;10.27;6.10;;;;;;;17.75;30.59;102226.22;5013222;28;20060;-47
2022/11/26 01:01:32;;;;;;;12.82;6.07;;;;;;;17.53;31.34;102221.13;5012766;28;20105;-45
2022/11/26 01:03:58;;;;;;;17.90;6.85;;;;;;;17.53;32.10;102220.31;5015293;28;20037;-44
2022/11/26 01:06:32;;;;;;;13.57;6.13;;;;;;;17.38;32.16;102216.03;5015399;28;20092;-44
2022/11/26 01:08:59;;;;;;;10.65;5.90;;;;;;;17.18;32.30;102223.44;5013052;28;20453;-46
2022/11/26 01:11:26;;;;;;;11.80;6.22;;;;;;;17.03;32.82;102223.72;5031566;28;20103;-43
2022/11/26 01:13:53;;;;;;;10.52;6.57;;;;;;;16.88;33.60;102223.19;5018600;28;20462;-43
2022/11/26 01:16:33;;;;;;;9.40;5.80;;;;;;;16.75;33.82;102232.16;5032698;28;20037;-43
2022/11/26 01:19:01;;;;;;;10.07;5.88;;;;;;;16.66;33.82;102233.41;5032644;28;20478;-43
2022/11/26 01:21:30;;;;;;;7.70;5.30;;;;;;;16.56;33.89;102236.53;5032334;28;20032;-43
2022/11/26 01:23:57;;;;;;;14.18;5.70;;;;;;;16.45;34.10;102236.38;5016155;28;20311;-44
2022/11/26 01:26:31;;;;;;;12.02;5.32;;;;;;;16.35;34.35;102226.81;5034369;28;20485;-44
2022/11/26 01:28:58;;;;;;;9.38;5.18;;;;;;;16.26;34.54;102229.94;5036922;28;20030;-44
2022/11/26 01:31:26;;;;;;;8.93;4.70;;;;;;;16.17;34.87;102229.34;5032309;28;20100;-44
2022/11/26 01:33:54;;;;;;;10.75;5.45;;;;;;;16.02;35.11;102228.72;5031723;28;20120;-44
2022/11/26 01:36:32;;;;;;;11.25;4.95;;;;;;;15.92;35.11;102231.00;5026683;28;20072;-45
2022/11/26 01:39:05;;;;;;;9.00;5.15;;;;;;;15.80;35.13;102236.19;5012477;28;20072;-47
2022/11/26 01:41:45;;;;;;;8.88;5.10;;;;;;;15.61;35.43;102237.81;5026982;28;20032;-46
2022/11/26 01:44:24;;;;;;;12.98;4.65;;;;;;;15.47;35.76;102234.25;4996070;28;20042;-46
2022/11/26 01:46:51;;;;;;;7.53;4.43;;;;;;;15.40;35.96;102237.97;5023684;28;20025;-46
2022/11/26 01:49:25;;;;;;;8.10;4.32;;;;;;;15.37;35.75;102232.97;5024072;28;20080;-46
2022/11/26 01:52:23;;;;;;;8.35;4.35;;;;;;;15.25;35.73;102240.81;5012191;28;20037;-44
2022/11/26 01:54:52;;;;;;;8.57;4.63;;;;;;;15.16;36.02;102233.97;5012483;28;20022;-44
2022/11/26 01:57:24;;;;;;;5.95;3.88;;;;;;;15.03;36.31;102240.94;5011918;28;20021;-47
2022/11/26 02:00:00;;;;;;;11.80;4.43;;;;;;;14.91;36.91;102239.88;5011676;28;20030;-44
2022/11/26 02:02:28;;;;;;;7.90;4.30;;;;;;;14.74;37.24;102247.47;5011673;28;20032;-44
2022/11/26 02:05:08;;;;;;;7.68;4.00;;;;;;;14.82;36.73;102242.91;5031212;28;20022;-46
2022/11/26 02:07:35;;;;;;;7.68;4.25;;;;;;;14.84;35.85;102244.41;5031749;28;20021;-44
2022/11/26 02:10:02;;;;;;;11.50;3.97;;;;;;;14.56;36.03;102240.94;5031340;28;20033;-47
2022/11/26 02:12:28;;;;;;;7.88;3.38;;;;;;;14.39;36.23;102238.53;5030884;28;20379;-43
2022/11/26 02:14:55;;;;;;;7.78;3.50;;;;;;;14.38;36.65;102238.69;5030849;28;20022;-44
2022/11/26 02:17:47;;;;;;;7.90;3.25;;;;;;;14.33;36.30;102242.00;5031357;28;20029;-45
2022/11/26 02:20:34;;;;;;;9.35;3.70;;;;;;;14.15;36.40;102244.34;5030537;28;20033;-44
2022/11/26 02:23:18;;;;;;;6.13;3.35;;;;;;;13.90;36.49;102244.75;5020112;28;20511;-44
2022/11/26 02:26:06;;;;;;;6.43;2.80;;;;;;;13.99;36.48;102248.13;5013525;28;20167;-46
2022/11/26 02:29:05;;;;;;;7.10;3.20;;;;;;;13.77;36.70;102252.72;5031868;28;20048;-43
2022/11/26 02:32:10;;;;;;;7.43;3.13;;;;;;;13.72;36.88;102247.09;5030020;28;20052;-46
2022/11/26 02:34:43;;;;;;;6.65;3.17;;;;;;;13.71;37.16;102248.09;5028789;28;20045;-43
2022/11/26 02:37:16;;;;;;;7.65;3.42;;;;;;;13.60;37.21;102257.53;5030048;28;20680;-43
2022/11/26 02:39:42;;;;;;;6.85;3.05;;;;;;;13.49;37.36;102255.31;5029948;28;20706;-44
2022/11/26 02:42:28;;;;;;;5.93;4.00;;;;;;;13.42;37.14;102252.56;5019192;28;20029;-43
2022/11/26 02:45:15;;;;;;;5.78;3.70;;;;;;;13.35;37.52;102251.66;5031148;28;20049;-44
2022/11/26 02:47:45;;;;;;;11.88;4.50;;;;;;;13.29;37.53;102248.91;5012805;28;20505;-42
2022/11/26 02:50:30;;;;;;;6.43;3.65;;;;;;;13.13;37.58;102244.53;5011271;28;20414;-43
2022/11/26 02:52:57;;;;;;;7.40;3.63;;;;;;;13.07;37.16;102253.38;5023588;28;20033;-43
2022/11/26 02:55:28;;;;;;;6.60;3.40;;;;;;;13.03;37.21;102250.22;5031175;28;20030;-42
2022/11/26 02:57:55;;;;;;;5.80;3.17;;;;;;;12.86;37.51;102248.75;5033023;28;20075;-46
2022/11/26 03:00:22;;;;;;;4.70;2.67;;;;;;;12.77;37.56;102250.72;5050691;28;20115;-49
2022/11/26 03:03:21;;;;;;;3.40;2.65;;;;;;;12.85;37.09;102250.59;5050650;28;20021;-49
2022/11/26 03:05:49;;;;;;;8.40;3.28;;;;;;;12.85;37.17;102252.47;5037650;28;20214;-49
2022/11/26 03:08:16;;;;;;;7.13;2.65;;;;;;;12.52;37.68;102244.78;5014293;28;20117;-45
2022/11/26 03:10:43;;;;;;;10.60;3.20;;;;;;;12.21;37.69;102242.22;5013032;28;20499;-49
2022/11/26 03:13:09;;;;;;;3.10;2.50;;;;;;;12.50;37.09;102238.75;5031331;28;20029;-47
2022/11/26 03:15:35;;;;;;;5.60;2.50;;;;;;;12.44;37.48;102244.88;5051785;22;20455;-49
2022/11/26 03:18:01;;;;;;;3.92;2.13;;;;;;;12.00;38.60;102239.44;5070218;28;20029;-49
2022/11/26 03:20:27;;;;;;;7.13;2.88;;;;;;;11.31;39.08;102234.03;5070843;28;20116;-49
2022/11/26 03:22:54;;;;;;;6.38;2.15;;;;;;;11.13;39.59;102249.53;5070559;28;20396;-48
2022/11/26 03:25:20;;;;;;;4.05;2.50;;;;;;;11.19;39.75;102241.63;5071190;28;20021;-49
2022/11/26 03:27:46;;;;;;;2.90;2.13;;;;;;;11.10;39.62;102230.13;5068886;28;20025;-48
2022/11/26 03:30:13;;;;;;;3.60;1.70;;;;;;;11.11;39.14;102236.31;5053738;28;20363;-45
2022/11/26 03:32:39;;;;;;;4.63;1.98;;;;;;;11.32;38.26;102241.88;5054661;28;20025;-46
2022/11/26 03:35:06;;;;;;;3.92;1.63;;;;;;;11.36;38.27;102247.72;5062461;28;20031;-48
2022/11/26 03:37:32;;;;;;;4.25;1.88;;;;;;;11.45;38.38;102251.22;5074338;28;20059;-47
2022/11/26 03:39:58;;;;;;;5.72;1.73;;;;;;;11.22;38.30;102252.00;5073940;28;20040;-45
2022/11/26 03:42:24;;;;;;;3.58;1.65;;;;;;;10.98;39.06;102257.47;5074254;28;20103;-48
2022/11/26 03:44:50;;;;;;;3.85;1.48;;;;;;;11.09;38.88;102249.03;5049523;28;20036;-46
2022/11/26 03:47:17;;;;;;;5.78;2.03;;;;;;;10.93;38.55;102254.47;5033925;28;20025;-46
2022/11/26 03:49:43;;;;;;;5.03;1.50;;;;;;;11.13;38.30;102247.69;5033596;28;20056;-45
2022/11/26 03:52:09;;;;;;;3.30;1.83;;;;;;;10.91;38.61;102243.94;5047098;28;20028;-45
2022/11/26 03:54:35;;;;;;;7.97;3.13;;;;;;;10.82;38.73;102247.66;5055131;28;20041;-45
2022/11/26 03:57:01;;;;;;;5.53;3.50;;;;;;;10.78;38.15;102241.81;5046178;28;20155;-45
2022/11/26 03:59:28;;;;;;;6.55;3.92;;;;;;;10.87;37.99;102231.06;5046308;28;20465;-47
2022/11/26 04:01:54;;;;;;;7.82;3.83;;;;;;;11.07;38.09;102227.78;5052553;28;20115;-45
2022/11/26 04:04:20;;;;;;;5.30;2.60;;;;;;;10.74;38.01;102234.31;5034433;28;20023;-49
2022/11/26 04:06:46;;;;;;;5.80;2.35;;;;;;;10.77;38.24;102228.59;5033618;28;20466;-45
2022/11/26 04:09:12;;;;;;;5.05;2.47;;;;;;;10.84;37.92;102233.09;5034082;28;20033;-46
2022/11/26 04:11:39;;;;;;;4.55;2.25;;;;;;;10.76;38.16;102235.78;5033314;28;20095;-46
2022/11/26 04:14:05;;;;;;;4.80;2.05;;;;;;;10.68;38.07;102246.53;5051534;28;20473;-45
2022/11/26 04:16:31;;;;;;;4.35;2.17;;;;;;;10.54;38.21;102240.03;5053123;28;20088;-45
2022/11/26 04:18:57;;;;;;;4.38;2.25;;;;;;;10.71;38.36;102231.94;5060966;28;20308;-47
2022/11/26 04:21:24;;;;;;;5.03;2.15;;;;;;;10.64;38.43;102239.00;5033467;28;20091;-49
2022/11/26 04:23:50;;;;;;;6.18;2.60;;;;;;;10.75;37.91;102247.50;5033046;28;20128;-48
2022/11/26 04:26:16;;;;;;;6.45;3.50;;;;;;;10.87;37.35;102241.78;5033655;28;20030;-49
2022/11/26 04:28:43;;;;;;;10.52;5.40;;;;;;;10.92;37.97;102242.09;5015429;28;20413;-47
2022/11/26 04:31:09;;;;;;;10.35;6.72;;;;;;;10.66;37.92;102248.56;5033220;28;20021;-46
2022/11/26 04:33:35;;;;;;;10.02;5.75;;;;;;;10.72;38.09;102250.56;5033228;28;20033;-49
2022/11/26 04:36:02;;;;;;;8.80;4.88;;;;;;;10.86;37.70;102253.50;5034512;28;20105;-45
2022/11/26 04:38:28;;;;;;;8.65;4.85;;;;;;;10.91;37.95;102253.81;5032619;28;20025;-45
2022/11/26 04:40:54;;;;;;;7.32;4.10;;;;;;;10.84;38.09;102256.38;5031825;28;20105;-49
2022/11/26 04:43:20;;;;;;;6.72;3.53;;;;;;;10.91;37.72;102248.47;5032981;28;20087;-46
2022/11/26 04:45:47;;;;;;;4.72;2.95;;;;;;;11.02;37.67;102254.28;5033197;28;20025;-47
2022/11/26 04:48:13;;;;;;;4.78;3.05;;;;;;;10.77;38.04;102263.41;5032647;28;20202;-46
2022/11/26 04:50:39;;;;;;;4.70;2.60;;;;;;;10.86;37.84;102266.91;5015097;28;20044;-46
2022/11/26 04:53:05;;;;;;;6.25;3.08;;;;;;;10.57;38.29;102277.19;5047162;28;20470;-45
2022/11/26 04:55:31;;;;;;;4.03;2.50;;;;;;;10.74;37.82;102263.75;5033219;28;20104;-46
2022/11/26 04:57:58;;;;;;;3.78;1.60;;;;;;;10.56;38.18;102266.66;5032495;28;20021;-46
2022/11/26 05:00:24;;;;;;;3.70;1.80;;;;;;;10.87;37.44;102258.69;5032320;28;20041;-46
2022/11/26 05:02:50;;;;;;;3.65;1.52;;;;;;;10.61;38.13;102266.16;5032458;28;20107;-45
2022/11/26 05:05:17;;;;;;;4.38;2.30;;;;;;;10.65;38.35;102262.09;5032563;28;20028;-47
2022/11/26 05:07:43;;;;;;;2.83;1.67;;;;;;;10.39;39.05;102259.66;5032656;28;20036;-45
2022/11/26 05:10:10;;;;;;;4.75;1.70;;;;;;;10.43;39.00;102258.31;5033464;28;20429;-48
2022/11/26 05:12:36;;;;;;;2.35;1.65;;;;;;;10.38;38.96;102260.66;5035144;28;20111;-45
2022/11/26 05:15:04;;;;;;;4.38;1.45;;;;;;;10.38;38.95;102268.69;5052243;28;20021;-46
2022/11/26 05:17:31;;;;;;;3.78;1.85;;;;;;;10.42;38.83;102264.66;5049075;28;20385;-46
2022/11/26 05:19:57;;;;;;;5.18;2.10;;;;;;;10.32;39.07;102260.31;5038210;28;20039;-46
2022/11/26 05:22:23;;;;;;;4.22;2.03;;;;;;;10.25;38.95;102250.47;5032965;28;20033;-45
2022/11/26 05:24:49;;;;;;;2.70;1.77;;;;;;;10.32;39.06;102246.94;5038746;28;20025;-49
2022/11/26 05:27:16;;;;;;;3.42;1.40;;;;;;;10.35;38.74;102250.31;5051748;28;20029;-45
2022/11/26 05:29:42;;;;;;;3.92;1.80;;;;;;;10.20;39.18;102248.28;5050640;28;20035;-45
2022/11/26 05:32:08;;;;;;;5.38;1.85;;;;;;;9.39;40.65;102242.91;5051938;28;20021;-45
2022/11/26 05:34:34;;;;;;;4.10;1.58;;;;;;;9.06;40.76;102237.47;5050024;28;20115;-45
2022/11/26 05:37:00;;;;;;;2.95;1.20;;;;;;;9.44;40.48;102237.91;5052014;28;20056;-45
2022/11/26 05:39:27;;;;;;;2.33;1.33;;;;;;;9.57;40.08;102232.91;5041965;28;20508;-45
2022/11/26 05:41:53;;;;;;;1.88;1.00;;;;;;;9.57;39.94;102224.06;5050929;28;20029;-48
2022/11/26 05:44:19;;;;;;;3.22;1.05;;;;;;;9.17;41.09;102212.28;5050386;28;20024;-45
2022/11/26 05:46:45;;;;;;;1.95;0.90;;;;;;;9.39;40.92;102210.84;5051733;28;20430;-45
2022/11/26 05:49:11;;;;;;;2.22;0.88;;;;;;;9.43;40.26;102222.84;5051605;28;20075;-46
2022/11/26 05:51:37;;;;;;;1.52;0.88;;;;;;;9.56;40.48;102223.22;5050805;28;20033;-50
2022/11/26 05:54:05;;;;;;;3.67;0.68;;;;;;;9.46;40.09;102207.31;5034949;28;20033;-46
2022/11/26 05:56:31;;;;;;;0.75;0.75;;;;;;;9.58;40.20;102207.84;5034727;28;20074;-51
2022/11/26 05:58:57;;;;;;;1.38;0.60;;;;;;;9.55;40.08;102205.50;5031908;28;20033;-45
2022/11/26 06:01:24;;;;;;;3.03;1.08;;;;;;;9.59;39.82;102212.19;5050308;28;20493;-45
2022/11/26 06:03:50;;;;;;;2.35;0.90;;;;;;;9.62;39.59;102216.38;5051483;28;20037;-45
2022/11/26 06:06:16;;;;;;;1.55;0.82;;;;;;;9.65;39.58;102222.19;5050219;28;20053;-49
2022/11/26 06:08:42;;;;;;;1.27;0.70;;;;;;;9.64;39.82;102215.19;5051663;28;20032;-47
2022/11/26 06:11:12;;;;;;;2.33;0.80;;;;;;;9.60;39.90;102219.19;5035859;28;20033;-47
2022/11/26 06:13:39;;;;;;;1.17;0.80;;;;;;;9.30;40.31;102217.16;5034272;28;20029;-46
2022/11/26 06:16:06;;;;;;;1.77;0.90;;;;;;;9.42;40.26;102213.16;5051210;28;20116;-48
2022/11/26 06:18:32;;;;;;;2.08;0.80;;;;;;;9.33;40.44;102217.66;5049720;28;20375;-45
2022/11/26 06:21:03;;;;;;;2.75;1.13;;;;;;;9.17;40.38;102213.13;5050976;28;20208;-45
2022/11/26 06:23:32;;;;;;;2.25;1.00;;;;;;;9.25;40.47;102218.47;5049466;28;20103;-46
2022/11/26 06:25:58;;;;;;;1.40;0.95;;;;;;;9.15;40.78;102206.25;5051669;28;20047;-49
2022/11/26 06:28:25;;;;;;;1.10;0.70;;;;;;;9.28;40.69;102206.63;5049920;28;20052;-46
2022/11/26 06:30:51;;;;;;;1.35;0.80;;;;;;;9.32;40.61;102204.44;5051221;28;20036;-45
2022/11/26 06:33:17;;;;;;;1.88;1.05;;;;;;;9.22;41.11;102202.78;5049627;28;20033;-45
2022/11/26 06:35:43;;;;;;;2.20;0.93;;;;;;;9.24;40.71;102197.28;5051271;28;20501;-46
2022/11/26 06:38:09;;;;;;;1.75;0.85;;;;;;;9.28;40.73;102193.28;5048580;28;20078;-47
2022/11/26 06:40:36;;;;;;;2.33;0.77;;;;;;;9.32;40.45;102191.94;5019389;28;20232;-46
2022/11/26 06:43:02;;;;;;;1.70;0.80;;;;;;;9.39;40.67;102202.81;5039362;28;20032;-47
2022/11/26 06:45:28;;;;;;;2.28;0.75;;;;;;;9.48;40.88;102202.63;5051600;28;20025;-47
2022/11/26 06:47:55;;;;;;;1.60;0.80;;;;;;;9.47;40.79;102197.47;5049810;28;20040;-46
2022/11/26 06:50:22;;;;;;;2.85;1.00;;;;;;;9.49;40.96;102203.47;5051260;28;20025;-45
2022/11/26 06:52:52;;;;;;;1.73;1.05;;;;;;;9.49;41.02;102200.81;5047571;28;20033;-45
2022/11/26 06:55:19;;;;;;;1.70;0.98;;;;;;;9.50;41.32;102198.00;5051567;28;20036;-47
2022/11/26 06:57:50;;;;;;;1.75;1.00;;;;;;;9.49;41.57;102190.09;5049919;28;20031;-44
2022/11/26 07:00:16;;;;;;;1.52;1.00;;;;;;;9.54;41.85;102198.47;5051018;28;20040;-49
2022/11/26 07:02:42;;;;;;;2.80;0.82;;;;;;;9.48;42.06;102199.97;5038834;28;20033;-48
2022/11/26 07:05:09;;;;;;;4.07;1.02;;;;;;;9.36;42.54;102190.59;5034036;28;20018;-47
2022/11/26 07:07:39;;;;;;;1.80;0.95;;;;;;;9.35;42.80;102182.75;5037903;28;20473;-48
2022/11/26 07:10:06;;;;;;;4.13;1.20;;;;;;;9.32;43.09;102183.06;5034628;28;20025;-47
2022/11/26 07:12:32;;;;;;;3.35;1.10;;;;;;;9.31;43.34;102174.22;5043081;28;20078;-45
2022/11/26 07:14:59;;;;;;;2.15;1.10;;;;;;;9.27;43.87;102167.53;5054517;28;20025;-47
2022/11/26 07:17:27;;;;;;;2.67;1.30;;;;;;;9.37;44.00;102173.56;5052579;28;20396;-46
2022/11/26 07:19:54;;;;;;;3.58;1.33;;;;;;;9.45;44.05;102178.09;5054361;28;20037;-45
2022/11/26 07:22:20;;;;;;;3.00;1.55;;;;;;;9.18;44.69;102180.06;5052707;28;20111;-45
2022/11/26 07:24:46;;;;;;;3.67;1.42;;;;;;;9.31;44.21;102179.56;5054602;28;20090;-46
2022/11/26 07:27:12;;;;;;;5.72;1.58;;;;;;;9.17;44.55;102174.91;5052503;28;20104;-43
2022/11/26 07:29:39;;;;;;;2.72;1.42;;;;;;;9.19;44.53;102189.75;5053386;28;20078;-48
2022/11/26 07:32:05;;;;;;;4.15;1.58;;;;;;;9.20;44.69;102186.06;5060827;28;20488;-46
2022/11/26 07:34:31;;;;;;;4.10;1.67;;;;;;;9.15;44.81;102188.38;5074604;28;20090;-45
2022/11/26 07:36:57;;;;;;;4.10;1.40;;;;;;;9.11;44.73;102172.88;5064343;28;20040;-44
2022/11/26 07:39:23;;;;;;;4.32;1.60;;;;;;;9.20;44.67;102175.38;5035347;28;20033;-45
2022/11/26 07:41:50;;;;;;;4.15;1.25;;;;;;;9.16;44.72;102157.16;5052860;28;20478;-44
2022/11/26 07:44:16;;;;;;;4.07;1.40;;;;;;;9.12;44.63;102154.00;5054346;28;20029;-47
2022/11/26 07:46:42;;;;;;;3.50;1.38;;;;;;;9.02;45.06;102150.66;5053885;28;20492;-44
2022/11/26 07:49:08;;;;;;;1.80;1.20;;;;;;;8.99;44.98;102142.94;5052254;28;20037;-44
2022/11/26 07:51:35;;;;;;;2.28;1.33;;;;;;;8.87;45.70;102130.91;5073708;28;20107;-44
2022/11/26 07:54:05;;;;;;;3.03;1.52;;;;;;;8.93;45.62;102140.94;5054056;28;20037;-45
2022/11/26 07:56:32;;;;;;;3.03;1.50;;;;;;;8.99;45.57;102141.13;5054018;28;20021;-45
2022/11/26 07:58:58;;;;;;;3.38;1.25;;;;;;;9.05;45.39;102139.66;5052131;28;20037;-44
2022/11/26 08:01:28;;;;;;;5.55;1.50;;;;;;;8.96;45.39;102135.28;5053643;28;20063;-44
2022/11/26 08:03:56;;;;;;;4.28;1.48;;;;;;;8.94;45.49;102126.59;5051929;28;20029;-47
2022/11/26 08:06:24;;;;;;;1.52;1.20;;;;;;;8.97;45.34;102123.59;5053727;28;20491;-44
2022/11/26 08:08:51;;;;;;;4.43;1.55;;;;;;;9.05;45.11;102130.78;5052550;28;20422;-44
2022/11/26 08:11:23;;;;;;;4.18;1.25;;;;;;;9.02;44.77;102131.94;5053986;28;20016;-46
2022/11/26 08:14:02;;;;;;;4.20;1.27;;;;;;;8.95;45.11;102144.28;5045701;28;20035;-45
2022/11/26 08:16:28;;;;;;;2.13;1.13;;;;;;;8.89;45.17;102140.44;5053639;28;20041;-46
2022/11/26 08:18:56;;;;;;;4.55;1.45;;;;;;;8.96;45.46;102141.44;5058046;28;20055;-47
2022/11/26 08:21:23;;;;;;;5.72;1.60;;;;;;;8.81;45.93;102139.56;5053428;28;20036;-45
2022/11/26 08:23:51;;;;;;;2.03;1.35;;;;;;;8.75;46.26;102134.88;5052148;28;20064;-45
2022/11/26 08:26:17;;;;;;;4.90;2.15;;;;;;;8.65;46.63;102137.69;5034819;28;20033;-46
2022/11/26 08:28:45;;;;;;;4.18;2.08;;;;;;;8.58;46.74;102134.81;5055142;28;20111;-46
2022/11/26 08:31:13;;;;;;;3.90;2.33;;;;;;;8.57;47.16;102130.50;5041030;28;20155;-44
2022/11/26 08:33:39;;;;;;;5.90;3.00;;;;;;;8.47;47.72;102129.78;5033274;28;20052;-49
2022/11/26 08:36:07;;;;;;;8.30;3.80;;;;;;;8.55;48.36;102126.28;5047579;28;20033;-46
2022/11/26 08:38:33;;;;;;;5.40;3.25;;;;;;;8.44;48.57;102127.44;5037362;28;20043;-47
2022/11/26 08:41:01;;;;;;;6.13;3.63;;;;;;;8.51;48.93;102132.97;5046170;28;20561;-45
2022/11/26 08:43:27;;;;;;;5.22;3.28;;;;;;;8.36;48.92;102128.22;5052850;28;20108;-48
2022/11/26 08:45:55;;;;;;;4.97;3.60;;;;;;;8.34;48.78;102118.69;5051261;28;20029;-47
2022/11/26 08:48:23;;;;;;;7.13;3.15;;;;;;;8.20;49.39;102130.78;5052799;28;20077;-45
2022/11/26 08:50:49;;;;;;;4.93;2.65;;;;;;;8.28;49.67;102135.34;5050468;28;20040;-45
2022/11/26 08:53:16;;;;;;;5.22;2.60;;;;;;;8.10;49.85;102127.38;5052992;28;20156;-45
2022/11/26 08:55:42;;;;;;;4.13;2.40;;;;;;;8.05;49.94;102124.34;5051041;28;20036;-48
2022/11/26 08:58:08;;;;;;;3.33;2.40;;;;;;;8.00;49.98;102121.34;5053000;28;20033;-48
2022/11/26 09:00:35;;;;;;;4.25;2.17;;;;;;;7.94;50.19;102121.00;5042059;28;20497;-45
2022/11/26 09:03:01;;;;;;;3.97;1.92;;;;;;;7.84;50.33;102109.59;5032824;28;20030;-48
2022/11/26 09:05:27;;;;;;;4.65;2.05;;;;;;;8.00;50.49;102118.69;5040534;28;20331;-46
2022/11/26 09:07:53;;;;;;;3.20;1.73;;;;;;;7.82;50.42;102124.06;5032670;28;20040;-47
2022/11/26 09:10:20;;;;;;;3.08;2.05;;;;;;;7.81;50.36;102133.88;5037888;28;20037;-44
2022/11/26 09:12:46;;;;;;;9.25;2.40;;;;;;;7.93;49.87;102134.47;5052579;28;20025;-46
2022/11/26 09:15:12;;;;;;;4.57;2.25;;;;;;;7.79;49.91;102129.72;5050457;28;20037;-47
2022/11/26 09:17:38;;;;;;;2.45;1.55;;;;;;;7.63;50.22;102141.91;5052337;28;20060;-44
2022/11/26 09:20:05;;;;;;;2.92;1.50;;;;;;;7.61;50.23;102138.59;5050659;28;20124;-44
2022/11/26 09:22:34;;;;;;;2.70;1.42;;;;;;;7.58;50.59;102138.88;5033004;28;20104;-46
2022/11/26 09:25:00;;;;;;;2.85;1.70;;;;;;;7.51;50.81;102129.84;5033470;28;20470;-44
2022/11/26 09:27:26;;;;;;;3.17;1.95;;;;;;;7.59;50.67;102135.22;5051778;28;20033;-45
2022/11/26 09:29:52;;;;;;;3.42;1.70;;;;;;;7.51;50.77;102131.66;5050791;28;20086;-47
2022/11/26 09:32:18;;;;;;;3.05;1.45;;;;;;;7.46;50.67;102137.47;5031986;28;20029;-46
2022/11/26 09:34:45;;;;;;;4.28;2.30;;;;;;;7.56;50.65;102134.72;5032265;28;20025;-46
2022/11/26 09:37:11;;;;;;;3.00;1.40;;;;;;;7.48;50.72;102140.78;5045947;28;20036;-46
2022/11/26 09:39:37;;;;;;;6.07;1.30;;;;;;;7.41;50.60;102143.25;5039188;28;20429;-48
2022/11/26 09:42:20;;;;;;;3.35;1.48;;;;;;;7.41;50.72;102150.41;5050812;28;20025;-45
2022/11/26 09:44:46;;;;;;;2.40;1.25;;;;;;;7.41;50.75;102143.25;5043486;28;20448;-45
2022/11/26 09:47:21;;;;;;;3.33;1.70;;;;;;;7.39;50.78;102149.72;5032051;28;20135;-45
2022/11/26 09:50:06;;;;;;;2.85;1.45;;;;;;;7.33;50.96;102158.31;5039343;28;20033;-47
2022/11/26 09:52:55;;;;;;;2.10;1.35;;;;;;;7.43;51.99;102163.56;5052084;28;20033;-46
2022/11/26 09:55:31;;;;;;;1.85;1.30;;;;;;;7.22;51.91;102153.19;5050473;28;20032;-47
2022/11/26 09:58:16;;;;;;;4.80;1.95;;;;;;;7.22;51.74;102153.19;5051782;28;20414;-46
2022/11/26 10:00:45;;;;;;;3.72;1.67;;;;;;;7.23;52.10;102168.22;5037308;28;20114;-49
2022/11/26 10:03:18;;;;;;;6.32;2.05;;;;;;;7.38;52.51;102172.88;5031707;28;20490;-45
2022/11/26 10:05:57;;;;;;;2.15;1.50;;;;;;;7.19;53.01;102169.50;5031887;28;20048;-48
2022/11/26 10:08:45;;;;;;;3.60;1.90;;;;;;;7.18;52.80;102178.47;5035055;28;20041;-49
2022/11/26 10:11:35;;;;;;;7.13;2.83;;;;;;;7.08;54.47;102176.72;5051197;28;20029;-48
2022/11/26 10:14:32;;;;;;;5.03;2.47;;;;;;;6.65;56.33;102172.03;5039892;28;20029;-45
2022/11/26 10:17:10;;;;;;;5.95;2.80;;;;;;;6.82;56.21;102181.06;5064804;28;20049;-47
2022/11/26 10:19:45;;;;;;;7.05;2.55;;;;;;;6.93;55.91;102188.00;5042374;28;20041;-48
2022/11/26 10:22:34;;;;;;;5.28;2.75;;;;;;;7.01;56.06;102183.63;5032136;28;20025;-43
2022/11/26 10:25:03;;;;;;;3.10;2.38;;;;;;;7.03;56.58;102188.78;5030950;28;20036;-47
2022/11/26 10:27:34;;;;;;;3.70;2.67;;;;;;;7.03;57.81;102184.31;5039981;28;20083;-45
2022/11/26 10:30:17;;;;;;;6.32;2.80;;;;;;;6.99;58.22;102179.44;5070985;28;20495;-46
2022/11/26 10:32:45;;;;;;;4.18;2.58;;;;;;;6.91;58.22;102184.66;5049331;28;20466;-46
2022/11/26 10:35:18;;;;;;;7.90;3.03;;;;;;;7.15;57.36;102179.59;5031519;28;20503;-47
2022/11/26 10:37:44;;;;;;;8.00;2.83;;;;;;;6.84;57.96;102192.41;5043585;28;20033;-46
2022/11/26 10:40:26;;;;;;;5.47;2.20;;;;;;;7.06;57.22;102189.34;5055102;28;20436;-47
2022/11/26 10:43:13;;;;;;;7.50;2.90;;;;;;;6.94;57.61;102187.00;5054048;28;20044;-45
2022/11/26 10:45:57;;;;;;;4.15;2.22;;;;;;;6.96;57.52;102183.25;5037582;28;20070;-44
2022/11/26 10:48:30;;;;;;;5.82;2.50;;;;;;;6.96;57.69;102182.41;5035282;28;20423;-45
2022/11/26 10:51:15;;;;;;;6.97;3.25;;;;;;;6.98;57.64;102172.44;5052673;28;20024;-45
2022/11/26 10:53:54;;;;;;;10.82;2.83;;;;;;;7.09;58.08;102178.38;5055142;28;20029;-44
2022/11/26 10:56:42;;;;;;;8.13;3.03;;;;;;;7.00;58.34;102178.47;5055207;28;20071;-44
2022/11/26 10:59:29;;;;;;;7.00;3.30;;;;;;;6.77;59.76;102186.00;5051173;28;20128;-47
2022/11/26 11:02:02;;;;;;;7.38;3.72;;;;;;;6.97;59.00;102176.91;5034798;28;20021;-44
2022/11/26 11:04:33;;;;;;;12.35;3.58;;;;;;;6.88;60.13;102188.44;5039449;28;20039;-44
2022/11/26 11:06:59;;;;;;;5.57;3.13;;;;;;;6.92;60.98;102187.19;5034886;28;20482;-47
2022/11/26 11:09:29;;;;;;;6.05;2.97;;;;;;;7.17;60.39;102179.47;5034113;28;20025;-45
2022/11/26 11:12:10;;;;;;;9.38;3.78;;;;;;;6.93;61.94;102175.53;5034901;28;20025;-45
2022/11/26 11:14:39;;;;;;;9.80;3.80;;;;;;;6.81;62.36;102168.75;5035768;28;20112;-46
2022/11/26 11:17:06;;;;;;;7.13;4.10;;;;;;;7.11;62.33;102173.75;5034377;28;20041;-44
2022/11/26 11:19:34;;;;;;;6.75;3.90;;;;;;;6.93;63.57;102164.06;5040554;28;20029;-46
2022/11/26 11:22:03;;;;;;;10.15;4.18;;;;;;;6.99;62.97;102161.63;5054303;28;20141;-48
2022/11/26 11:24:29;;;;;;;10.18;3.97;;;;;;;7.06;63.17;102170.72;5048987;28;20030;-48
2022/11/26 11:26:59;;;;;;;6.93;3.60;;;;;;;7.07;62.61;102158.22;5034371;28;20033;-49
2022/11/26 11:29:33;;;;;;;8.73;4.05;;;;;;;7.08;62.46;102158.06;5038199;28;20036;-48
2022/11/26 11:32:03;;;;;;;8.95;4.07;;;;;;;7.11;62.17;102143.63;5054255;28;20025;-48
2022/11/26 11:34:39;;;;;;;6.60;3.63;;;;;;;7.04;61.97;102134.56;5053014;28;20485;-48
2022/11/26 11:37:13;;;;;;;7.80;4.13;;;;;;;7.14;61.96;102140.66;5042468;28;20025;-48
2022/11/26 11:39:40;;;;;;;13.30;4.40;;;;;;;6.99;62.21;102121.69;5035948;28;20047;-48
2022/11/26 11:42:21;;;;;;;7.82;3.85;;;;;;;7.03;61.99;102117.75;5033955;28;20104;-44